AirNav   Everest Fuels
 
 1200 users online  

PALT Tuluksak Airport
Tuluksak, Alaska, USA

GOING TO TULUKSAK?


FAA INFORMATION EFFECTIVE 22 APRIL 2021

Location

FAA Identifier: TLT
Lat/Long: 61-05-15.8200N 160-55-24.0700W
61-05.263667N 160-55.401167W
61.0877278,-160.9233528
(estimated)
Elevation: 35.8 ft. / 11 m (estimated)
Variation: 19E (1985)
Time zone: UTC -8 (UTC -9 during Standard Time)
Zip code: 99679

Airport Operations

Airport use: Open to the public
Activation date: 10/1959
Control tower: no
ARTCC: ANCHORAGE CENTER
FSS: KENAI FLIGHT SERVICE STATION [907-283-7211]
NOTAMs facility: ENA (NOTAM-D service available)
Attendance: UNATNDD
Wind indicator: lighted
Segmented circle: yes
Lights: ACTVT MIRL RY 15/33 - CTAF.
Beacon: white-green (lighted land airport)
ACTVT ROTG BCN - CTAF.

Airport Communications

CTAF: 122.9

Nearby radio navigation aids

VOR radial/distance  VOR name  Freq  Var
BETr041/31.9BETHEL VORTAC114.1014E

 
NDB name  Hdg/Dist  Freq  Var  ID
OSCARVILLE046/32.925111EOSE --- ... .

Airport Services

Airframe service: NONE
Powerplant service: NONE
Bottled oxygen: NONE
Bulk oxygen: NONE

Runway Information

Runway 15/33

Dimensions: 3300 x 60 ft. / 1006 x 18 m
Surface: gravel/dirt, in good condition
Runway edge lights: medium intensity
RUNWAY 15  RUNWAY 33
Latitude: 61-05.518500N61-05.009000N
Longitude: 160-55.590833W160-55.211667W
Elevation: 35.8 ft.35.8 ft.
Traffic pattern: leftleft
Markings: basic, in good conditionbasic, in good condition
Runway end identifier lights: yesyes
Touchdown point: yes, no lightsyes, no lights
Obstructions: 6 ft. brush, 50 ft. from runway, 100 ft. left and right of centerline, 8:1 slope to clear48 ft. trees, 1250 ft. from runway, 26:1 slope to clear

Airport Ownership and Management from official FAA records

Ownership: Publicly-owned
Owner: ALASKA DOT&PF CENTRAL REGION
PO BOX 196900
ANCHORAGE, AK 99519-6900
Phone 907-269-0747
Manager: JOSEPH LARAUX
BOX 505
BETHEL, AK 99559
Phone (907) 543-2498

Airport Operational Statistics

Aircraft operations: avg 42/month *
100% air taxi
* for 12-month period ending 31 December 2016

Additional Remarks

RY COND NOT MONITORED; RCMD VISUAL INSPECTION PRIOR TO USE.
WX CAMERAS AVBL ON INTERNET AT HTTP://AVCAMS.FAA.GOV

Instrument Procedures

There are no published instrument procedures at PALT.

Some nearby airports with instrument procedures:

PFAK - Akiak Airport (14 nm SW)
PFKW - Kwethluk Airport (23 nm SW)
PALG - Kalskag Airport (32 nm NE)
PABE - Bethel Airport (32 nm SW)
PAPK - Napaskiak Airport (34 nm SW)
 
Loc | Ops | Rwys | IFR | FBO | Links
Com | Nav | Svcs | Stats | Notes

Crowley
 
Area around PALT (Tuluksak Airport)
 
Road maps at: MapQuest Bing Google
 
Aerial photo
WARNING: Photo may not be current or correct
Aerial photo of PALT (Tuluksak Airport)
Photo by Security Aviation
Photo taken 22-Oct-2018
looking north.

Do you have a better or more recent aerial photo of Tuluksak Airport that you would like to share? If so, please send us your photo.

 
Sectional chart

 
Airport distance calculator
Flying to Tuluksak Airport? Find the distance to fly.

From to PALT

Sunrise and sunset
Times for 06-May-2021
 Local
(UTC-8)
 Zulu
(UTC)
Morning civil twilight05:2113:21
Sunrise06:2214:22
Sunset22:5906:59
Evening civil twilight24:0008:00

Current date and time
Zulu (UTC)  06-May-2021 13:15:40
Local (UTC-8)  06-May-2021 05:15:40
 
METAR
PFKW 
23nm SW 
061056Z AUTO 05004KT 10SM CLR 00/M01 A3002 RMK AO2 SLP165 T00001006 FZRANO
PABE 
31nm SW 
061253Z 04003KT 10SM CLR M01/M02 A3000 RMK AO2 SLP161 T10111022
PALG 
32nm NE 
061256Z AUTO 00000KT 10SM CLR M03/M04 A2998 RMK AO2 SLP156 T10331039 FZRANO
PARS 
43nm N 
061256Z AUTO 00000KT 10SM CLR M02/M02 A2999 RMK AO2 SLP158 T10171022 PWINO FZRANO $
PPIT 
45nm W 
061256Z AUTO 02006KT 1 1/4SM BR BKN037 M02/M02 A2999 RMK AO2 SLP159 T10171017 PWINO FZRANO TSNO $
TAF
PABE 
31nm SW 
061125Z 0612/0712 02005KT P6SM FEW040 FM062000 04010KT P6SM SCT035 BKN070
NOTAMs
Click for the latest NOTAMs
NOTAMs are issued by the DoD/FAA and will open in a separate window not controlled by AirNav.

 

 
 

Would you like to see your business listed on this page?

 If your business provides an interesting product or service to pilots, flight crews, aircraft, or users of the Tuluksak Airport, you should consider listing it here.  To start the listing process, click on the button below
 
Add a business
 

Other Pages about Tuluksak Airport

Update a link
 
Copyright © AirNav, LLC. All rights reserved. Privacy Policy  Contact